Terminal Aerodrome Forecast
Issued by NWS Cleveland, OH

Home | Current Version | Previous Version | Text Only | Print | Product List | Glossary On
Versions: 1 2 3 4 5 6 7 8 9 10 11 12 13 14 15 16
000
FTUS41 KCLE 231139
TAFERI
TAF
KERI 231139Z 2312/2412 19010KT P6SM VCSH SCT025 OVC080
     FM231300 20013G20KT 6SM -SHRA BKN025 OVC060
      TEMPO 2313/2316 3SM RA OVC015
     FM231600 22012G22KT 5SM -SHRA VCTS BKN015CB OVC025
      TEMPO 2317/2319 24012KT 1SM TSRA OVC005CB
     FM232300 25010KT P6SM BKN015 OVC025
     FM240900 28005KT P6SM BKN060=

USA.gov is the U.S. government's official web portal to all federal, state and local government web resources and services.